Time;durP1;ratioP1;P1;durP2;ratioP2;P2;SDS_P1;SDS_P2;PMS_P1;PMS_P2;Temp;Humidity;BMP_temperature;BMP_pressure;BME280_temperature;BME280_humidity;BME280_pressure;Samples;Min_cycle;Max_cycle;Signal;HPM_P1;HPM_P2
2022/02/04 00:25:09;;;;;;;5.83;3.80;;;8.50;99.90;;;;;;5042462;28;20438;-72
2022/02/04 00:27:34;;;;;;;7.30;4.60;;;8.50;99.90;;;;;;5040706;28;20569;-71
2022/02/04 00:30:11;;;;;;;6.03;4.00;;;8.40;99.90;;;;;;5041584;28;21017;-70
2022/02/04 00:32:39;;;;;;;5.23;4.67;;;8.40;99.90;;;;;;5041425;28;20188;-70
2022/02/04 00:35:18;;;;;;;7.23;4.03;;;8.30;99.90;;;;;;5031940;28;20948;-70
2022/02/04 00:38:33;;;;;;;4.90;4.00;;;8.30;99.90;;;;;;5038803;28;20493;-70
2022/02/04 00:40:35;;;;;;;6.17;3.83;;;8.20;99.90;;;;;;5030039;28;21016;-70
2022/02/04 00:43:04;;;;;;;4.87;3.70;;;8.30;99.90;;;;;;5040666;28;20947;-70
2022/02/04 00:45:41;;;;;;;4.20;3.50;;;8.30;99.90;;;;;;5042300;28;20434;-70
2022/02/04 00:48:38;;;;;;;4.33;3.93;;;8.30;99.90;;;;;;5037739;28;20501;-71
2022/02/04 00:56:19;;;;;;;6.13;4.40;;;8.40;99.90;;;;;;5039192;28;21107;-71
2022/02/04 01:28:27;;;;;;;5.77;4.60;;;8.00;99.90;;;;;;5044851;28;20579;-71
2022/02/04 01:30:54;;;;;;;5.00;4.27;;;8.10;99.90;;;;;;5041933;28;20262;-71
2022/02/04 01:33:19;;;;;;;4.63;3.97;;;8.10;99.90;;;;;;5042512;28;20430;-70
2022/02/04 01:35:45;;;;;;;4.23;3.73;;;8.00;99.90;;;;;;5045336;28;21299;-70
2022/02/04 01:38:11;;;;;;;5.40;4.67;;;8.10;99.90;;;;;;5042698;28;20234;-70
2022/02/04 01:40:37;;;;;;;8.50;4.60;;;8.10;99.90;;;;;;5043506;28;20311;-70
2022/02/04 01:43:03;;;;;;;6.27;5.00;;;8.10;99.90;;;;;;5041149;28;20176;-71
2022/02/04 01:45:28;;;;;;;5.97;5.30;;;8.00;99.90;;;;;;5043195;28;20192;-70
2022/02/04 01:47:57;;;;;;;6.23;5.63;;;8.00;99.90;;;;;;5045882;28;20512;-70
2022/02/04 01:50:28;;;;;;;6.60;5.00;;;8.10;99.90;;;;;;5039559;28;20207;-69
2022/02/04 01:52:58;;;;;;;6.33;5.20;;;8.10;99.90;;;;;;5044233;28;20438;-70
2022/02/04 01:55:25;;;;;;;6.27;5.67;;;8.10;99.90;;;;;;5042716;28;20438;-70
2022/02/04 01:57:51;;;;;;;7.63;5.27;;;8.10;99.90;;;;;;5043317;28;20462;-70
2022/02/04 02:00:17;;;;;;;5.40;4.90;;;8.10;99.90;;;;;;5041255;28;20802;-70
2022/02/04 02:02:44;;;;;;;6.53;5.10;;;8.10;99.90;;;;;;5025476;28;20729;-70
2022/02/04 02:05:10;;;;;;;7.47;5.33;;;8.10;99.90;;;;;;5044331;28;20431;-70
2022/02/04 02:07:43;;;;;;;6.60;5.97;;;8.10;99.90;;;;;;5024088;28;21043;-70
2022/02/04 02:10:12;;;;;;;7.23;6.00;;;8.10;99.90;;;;;;5041401;28;20442;-69
2022/02/04 02:15:42;;;;;;;7.57;6.13;;;8.10;99.90;;;;;;5003181;28;20510;-70
2022/02/04 02:35:46;;;;;;;8.10;7.10;;;8.00;99.90;;;;;;5038681;28;20468;-70
2022/02/04 02:49:04;;;;;;;11.13;7.13;;;8.00;99.90;;;;;;5038410;28;20865;-70
2022/02/04 02:59:14;;;;;;;9.53;7.00;;;8.00;99.90;;;;;;5043465;28;20430;-71
2022/02/04 03:01:47;;;;;;;8.30;5.50;;;8.00;99.90;;;;;;5039744;28;20231;-70
2022/02/04 03:04:15;;;;;;;7.53;6.20;;;8.00;99.90;;;;;;5041187;28;21001;-71
2022/02/04 03:06:42;;;;;;;8.87;6.90;;;8.00;99.90;;;;;;5028359;28;20462;-71
2022/02/04 03:09:08;;;;;;;8.57;6.87;;;8.00;99.90;;;;;;5041518;28;20441;-70
2022/02/04 03:11:33;;;;;;;7.47;5.97;;;7.90;99.90;;;;;;5040203;28;20462;-70
2022/02/04 03:14:00;;;;;;;8.13;5.80;;;7.90;99.90;;;;;;5022162;28;20180;-71
2022/02/04 03:16:26;;;;;;;10.40;6.30;;;8.00;99.90;;;;;;5039681;28;20227;-70
2022/02/04 03:18:54;;;;;;;9.30;7.00;;;7.90;99.90;;;;;;5039870;28;20422;-70
2022/02/04 03:21:34;;;;;;;7.90;6.10;;;7.90;99.90;;;;;;5025596;28;20431;-70
2022/02/04 03:24:12;;;;;;;6.93;5.73;;;7.90;99.90;;;;;;5041972;28;20828;-70
2022/02/04 03:29:16;;;;;;;7.77;6.00;;;8.00;99.90;;;;;;5041143;28;20446;-70
2022/02/04 03:31:47;;;;;;;8.20;7.03;;;8.00;99.90;;;;;;5040035;28;21314;-70
2022/02/04 03:34:17;;;;;;;7.37;5.73;;;8.00;99.90;;;;;;5040978;28;20832;-70
2022/02/04 03:36:43;;;;;;;9.10;7.43;;;7.90;99.90;;;;;;5028876;28;20459;-69
2022/02/04 03:39:09;;;;;;;7.53;6.23;;;7.90;99.90;;;;;;5040287;28;20438;-69
2022/02/04 03:41:34;;;;;;;7.40;5.70;;;8.00;99.90;;;;;;5039857;28;20439;-69
2022/02/04 03:44:00;;;;;;;6.63;5.83;;;8.00;99.90;;;;;;5039218;28;20192;-70
2022/02/04 03:46:26;;;;;;;9.67;6.97;;;8.00;99.90;;;;;;5040134;28;20200;-69
2022/02/04 03:48:51;;;;;;;10.40;7.40;;;7.90;99.90;;;;;;5041580;28;20195;-70
2022/02/04 03:51:17;;;;;;;7.83;6.60;;;7.90;99.90;;;;;;5041299;28;20196;-69
2022/02/04 03:53:42;;;;;;;8.90;6.53;;;7.90;99.90;;;;;;5039771;28;20834;-69
2022/02/04 03:56:08;;;;;;;9.63;6.57;;;7.80;99.90;;;;;;5041707;28;20172;-70
2022/02/04 03:58:37;;;;;;;8.20;6.40;;;7.90;99.90;;;;;;5041874;28;20177;-70
2022/02/04 04:01:04;;;;;;;9.40;7.07;;;8.00;99.90;;;;;;5040550;28;20257;-70
2022/02/04 04:03:31;;;;;;;8.13;6.20;;;7.90;99.90;;;;;;5039804;28;20445;-70
2022/02/04 04:05:56;;;;;;;9.43;7.57;;;7.90;99.90;;;;;;5040012;28;20487;-70
2022/02/04 04:08:22;;;;;;;9.67;6.17;;;7.90;99.90;;;;;;5041194;28;20834;-71
2022/02/04 04:10:50;;;;;;;8.63;6.73;;;7.90;99.90;;;;;;5040176;28;20187;-70
2022/02/04 04:13:16;;;;;;;7.90;6.53;;;7.90;99.90;;;;;;5041507;28;20172;-70
2022/02/04 04:15:42;;;;;;;8.47;5.73;;;8.00;99.90;;;;;;5038503;28;20953;-70
2022/02/04 04:18:12;;;;;;;7.67;6.40;;;7.90;99.90;;;;;;5037934;28;20681;-71
2022/02/04 04:20:42;;;;;;;7.60;6.50;;;7.90;99.90;;;;;;5036926;28;20431;-70
2022/02/04 04:23:08;;;;;;;6.73;5.83;;;7.90;99.90;;;;;;5037733;28;20477;-71
2022/02/04 04:25:33;;;;;;;8.23;6.17;;;7.80;99.90;;;;;;5039625;28;20882;-73
2022/02/04 04:27:59;;;;;;;8.40;6.80;;;7.90;99.90;;;;;;5039445;28;20458;-70
2022/02/04 04:30:25;;;;;;;7.20;5.70;;;7.90;99.90;;;;;;5041389;28;20297;-69
2022/02/04 04:32:53;;;;;;;8.63;6.73;;;7.90;99.90;;;;;;5038193;28;20188;-70
2022/02/04 04:35:23;;;;;;;7.10;6.13;;;7.90;99.90;;;;;;5041830;28;20434;-71
2022/02/04 04:37:54;;;;;;;9.47;7.03;;;7.90;99.90;;;;;;5038462;28;20491;-71
2022/02/04 05:31:17;;;;;;;10.87;7.53;;;7.70;99.90;;;;;;5041329;28;20211;-70
2022/02/04 05:33:43;;;;;;;10.17;8.13;;;7.70;99.90;;;;;;5043238;28;20494;-69
2022/02/04 05:36:10;;;;;;;8.03;7.27;;;7.70;99.90;;;;;;5040321;28;20874;-70
2022/02/04 05:38:36;;;;;;;11.13;7.03;;;7.60;99.90;;;;;;5038282;28;20237;-70
2022/02/04 05:41:03;;;;;;;7.30;6.10;;;7.60;99.90;;;;;;5040978;28;20429;-70
2022/02/04 05:43:32;;;;;;;7.37;6.63;;;7.60;99.90;;;;;;5039246;28;20446;-70
2022/02/04 05:46:06;;;;;;;10.20;8.10;;;7.50;99.90;;;;;;5039914;28;20543;-70
2022/02/04 05:48:35;;;;;;;10.17;7.17;;;7.50;99.90;;;;;;5043636;28;20490;-71
2022/02/04 05:51:28;;;;;;;10.70;6.60;;;7.60;99.90;;;;;;5041383;28;20446;-71
2022/02/04 05:54:12;;;;;;;8.30;7.00;;;7.50;99.90;;;;;;5022889;28;20473;-71
2022/02/04 05:56:49;;;;;;;8.33;7.43;;;7.50;99.90;;;;;;5036561;28;21018;-71
2022/02/04 05:59:26;;;;;;;16.37;7.70;;;7.40;99.90;;;;;;5038913;28;20494;-71
2022/02/04 06:02:01;;;;;;;8.53;7.30;;;7.40;99.90;;;;;;5039853;28;20447;-70
2022/02/04 06:10:08;;;;;;;8.43;7.37;;;7.40;99.90;;;;;;5038245;28;20434;-70
2022/02/04 06:23:20;;;;;;;6.93;6.17;;;7.30;99.90;;;;;;5039616;28;20476;-72
2022/02/04 06:25:46;;;;;;;10.17;7.07;;;7.30;99.90;;;;;;5039067;28;20430;-72
2022/02/04 06:28:15;;;;;;;10.03;6.23;;;7.40;99.90;;;;;;5036590;28;20200;-72
2022/02/04 06:30:41;;;;;;;7.13;6.13;;;7.40;99.90;;;;;;5037800;28;20462;-72
2022/02/04 06:33:07;;;;;;;7.13;5.73;;;7.40;99.90;;;;;;5037512;28;20451;-72
2022/02/04 06:35:35;;;;;;;10.40;6.80;;;7.50;99.90;;;;;;5039602;28;20459;-72
2022/02/04 06:38:02;;;;;;;7.03;6.10;;;7.40;99.90;;;;;;5037054;28;20208;-72
2022/02/04 06:40:28;;;;;;;7.10;6.27;;;7.50;99.90;;;;;;5036992;28;20948;-70
2022/02/04 06:42:55;;;;;;;7.07;6.20;;;7.40;99.90;;;;;;5038704;28;20719;-70
2022/02/04 06:45:21;;;;;;;10.10;7.37;;;7.40;99.90;;;;;;5037098;28;20434;-72
2022/02/04 06:47:47;;;;;;;9.90;6.70;;;7.30;99.90;;;;;;5018137;28;20470;-70
2022/02/04 06:50:14;;;;;;;9.60;6.33;;;7.40;99.90;;;;;;5037368;28;20442;-72
2022/02/04 06:52:42;;;;;;;9.00;6.57;;;7.50;99.90;;;;;;5022067;28;20442;-71
2022/02/04 06:55:08;;;;;;;8.00;6.67;;;7.50;99.90;;;;;;5032659;28;20426;-72
2022/02/04 06:57:33;;;;;;;8.50;6.50;;;7.60;99.90;;;;;;5038027;28;20595;-71
2022/02/04 06:59:59;;;;;;;9.33;7.23;;;7.60;99.90;;;;;;5022030;28;20525;-71
2022/02/04 07:02:27;;;;;;;8.20;7.20;;;7.50;99.90;;;;;;5028760;28;20181;-71
2022/02/04 07:04:53;;;;;;;9.47;7.47;;;7.50;99.90;;;;;;5032277;28;20641;-72
2022/02/04 07:07:19;;;;;;;9.60;6.83;;;7.50;99.90;;;;;;5031721;28;20463;-72
2022/02/04 07:09:54;;;;;;;9.50;8.00;;;7.50;99.90;;;;;;5035407;28;20445;-72
2022/02/04 07:17:43;;;;;;;10.37;8.13;;;7.30;99.90;;;;;;5035764;28;20883;-72
2022/02/04 07:20:09;;;;;;;10.90;8.67;;;7.40;99.90;;;;;;5036230;28;20870;-70
2022/02/04 07:22:35;;;;;;;10.17;8.50;;;7.30;99.90;;;;;;5036090;28;20537;-72
2022/02/04 07:25:04;;;;;;;12.33;8.23;;;7.30;99.90;;;;;;5035133;28;20959;-73
2022/02/04 07:27:31;;;;;;;11.83;7.63;;;7.20;99.90;;;;;;5036000;28;20572;-72
2022/02/04 07:29:57;;;;;;;8.97;7.10;;;7.20;99.90;;;;;;5039779;28;20438;-73
2022/02/04 07:32:39;;;;;;;9.80;7.17;;;7.20;99.90;;;;;;5039610;28;20434;-73
2022/02/04 07:35:34;;;;;;;12.63;8.60;;;7.10;99.90;;;;;;5039747;28;20446;-72
2022/02/04 07:43:18;;;;;;;11.13;6.80;;;7.10;99.90;;;;;;5038735;28;20437;-72
2022/02/04 07:45:44;;;;;;;10.87;8.50;;;7.10;99.90;;;;;;5040676;28;20438;-72
2022/02/04 07:48:10;;;;;;;9.67;7.70;;;7.10;99.90;;;;;;5037776;28;20233;-72
2022/02/04 07:50:35;;;;;;;10.17;7.80;;;7.10;99.90;;;;;;5041099;28;20202;-72
2022/02/04 07:53:01;;;;;;;11.23;7.40;;;7.10;99.90;;;;;;5039665;28;20189;-72
2022/02/04 07:55:27;;;;;;;10.93;6.77;;;7.10;99.90;;;;;;5038054;28;20673;-71
2022/02/04 07:57:53;;;;;;;11.67;7.00;;;7.10;99.90;;;;;;5040431;28;20454;-72
2022/02/04 08:00:19;;;;;;;11.60;7.63;;;7.20;99.90;;;;;;5039669;28;20438;-71
2022/02/04 08:02:46;;;;;;;9.30;6.80;;;7.20;99.90;;;;;;5038535;28;20195;-72
2022/02/04 08:05:18;;;;;;;16.00;8.40;;;7.30;99.90;;;;;;5019563;28;20271;-71
2022/02/04 08:10:36;;;;;;;11.50;8.20;;;7.30;99.90;;;;;;5038366;28;20466;-71
2022/02/04 08:49:31;;;;;;;11.53;8.43;;;7.90;99.90;;;;;;5038232;28;20964;-71
2022/02/04 08:54:44;;;;;;;15.77;9.30;;;7.90;99.90;;;;;;5037699;28;20528;-71
2022/02/04 08:57:22;;;;;;;11.53;8.70;;;8.00;99.90;;;;;;5034848;28;20466;-72
2022/02/04 09:02:19;;;;;;;13.57;8.77;;;8.00;99.90;;;;;;5037215;28;20457;-70
2022/02/04 09:04:49;;;;;;;14.10;8.97;;;7.90;99.90;;;;;;5038532;28;20198;-71
2022/02/04 09:07:18;;;;;;;11.73;8.60;;;8.00;99.90;;;;;;5036899;28;20515;-71
2022/02/04 09:20:24;;;;;;;14.00;9.37;;;7.80;99.90;;;;;;5038323;28;20857;-71
2022/02/04 09:22:50;;;;;;;10.87;7.87;;;7.90;99.90;;;;;;5020824;28;20541;-72
2022/02/04 09:25:17;;;;;;;15.10;10.00;;;7.90;99.90;;;;;;5038750;28;20536;-71
2022/02/04 09:27:42;;;;;;;11.50;8.10;;;7.80;99.90;;;;;;5039152;28;20569;-72
2022/02/04 09:30:11;;;;;;;13.50;8.93;;;7.90;99.90;;;;;;5039300;28;20430;-72
2022/02/04 09:32:39;;;;;;;15.30;8.80;;;8.00;99.90;;;;;;5037064;28;20179;-72
2022/02/04 09:35:07;;;;;;;10.07;7.90;;;8.10;99.90;;;;;;5038903;28;20845;-72
2022/02/04 09:37:33;;;;;;;11.77;7.63;;;8.10;99.90;;;;;;5038612;28;20858;-71
2022/02/04 09:39:59;;;;;;;8.83;6.63;;;8.20;99.90;;;;;;5036533;28;20456;-71
2022/02/04 09:42:26;;;;;;;7.70;6.47;;;8.30;99.90;;;;;;5038109;28;20234;-70
2022/02/04 09:44:51;;;;;;;12.00;6.90;;;8.40;99.90;;;;;;5038119;28;20450;-71
2022/02/04 09:47:24;;;;;;;12.93;6.23;;;8.40;99.90;;;;;;5042704;28;20519;-70
2022/02/04 09:49:55;;;;;;;8.20;6.20;;;8.50;99.90;;;;;;5040725;28;20201;-71
2022/02/04 10:08:59;;;;;;;4.47;4.00;;;8.60;99.90;;;;;;5042769;28;20481;-72
2022/02/04 10:17:27;;;;;;;4.40;3.50;;;8.80;99.90;;;;;;5037721;28;20693;-72
2022/02/04 10:19:57;;;;;;;6.97;4.47;;;8.90;99.90;;;;;;5005580;28;20438;-71
2022/02/04 10:22:29;;;;;;;3.87;3.30;;;8.90;99.90;;;;;;5039008;28;21586;-71
2022/02/04 10:25:00;;;;;;;4.13;3.57;;;9.00;99.90;;;;;;5038032;28;20442;-69
2022/02/04 10:27:29;;;;;;;3.90;3.50;;;9.10;99.90;;;;;;5021428;28;20547;-70
2022/02/04 10:30:05;;;;;;;4.00;3.37;;;9.30;99.90;;;;;;5041036;28;20442;-69
2022/02/04 10:32:31;;;;;;;3.07;2.70;;;9.30;99.90;;;;;;5035576;28;20449;-69
2022/02/04 10:35:09;;;;;;;4.90;3.60;;;9.30;99.90;;;;;;5040621;28;20430;-69
2022/02/04 10:37:38;;;;;;;3.83;3.13;;;9.10;99.90;;;;;;5039181;28;20282;-70
2022/02/04 10:40:23;;;;;;;3.60;2.80;;;9.20;99.90;;;;;;5042156;28;20458;-70
2022/02/04 10:43:41;;;;;;;6.70;2.97;;;9.30;99.90;;;;;;5040386;28;20931;-70
2022/02/04 10:45:54;;;;;;;3.63;2.30;;;9.30;99.90;;;;;;5029110;28;20459;-70
2022/02/04 11:03:52;;;;;;;3.00;2.70;;;9.50;99.90;;;;;;5038098;28;20462;-70
2022/02/04 11:06:31;;;;;;;4.00;3.60;;;9.50;99.90;;;;;;5037504;28;20466;-69
2022/02/04 11:09:10;;;;;;;5.63;3.43;;;9.40;99.90;;;;;;5037058;28;21186;-70
2022/02/04 11:36:23;;;;;;;3.50;2.73;;;9.10;99.90;;;;;;5038866;28;21397;-70
2022/02/04 11:54:41;;;;;;;2.30;2.10;;;9.30;99.90;;;;;;5037676;28;20450;-69
2022/02/04 11:57:02;;;;;;;2.77;2.23;;;9.20;99.90;;;;;;5024106;28;20570;-70
2022/02/04 11:59:38;;;;;;;2.80;2.50;;;9.40;99.90;;;;;;5037535;28;20453;-69
2022/02/04 12:02:29;;;;;;;2.93;2.43;;;9.40;99.90;;;;;;5036509;28;20448;-70
2022/02/04 12:05:07;;;;;;;3.40;2.17;;;9.60;99.90;;;;;;5038782;28;20795;-70
2022/02/04 12:08:00;;;;;;;2.73;2.17;;;9.70;99.90;;;;;;5036208;28;21437;-70
2022/02/04 12:10:30;;;;;;;4.63;2.73;;;9.80;99.90;;;;;;5025125;28;20465;-69
2022/02/04 12:12:57;;;;;;;4.20;2.57;;;9.70;99.90;;;;;;5039394;28;20533;-70
2022/02/04 12:15:31;;;;;;;3.70;2.73;;;9.70;99.90;;;;;;5038327;28;20438;-69
2022/02/04 12:17:59;;;;;;;2.77;2.03;;;9.50;99.90;;;;;;5035235;28;20453;-70
2022/02/04 12:20:50;;;;;;;4.77;3.23;;;9.50;99.90;;;;;;5039685;28;20422;-70
2022/02/04 12:23:35;;;;;;;4.97;3.20;;;9.60;99.90;;;;;;5018968;28;20450;-70
2022/02/04 12:26:33;;;;;;;3.97;2.60;;;9.60;99.90;;;;;;5035224;28;20441;-71
2022/02/04 12:29:02;;;;;;;2.20;1.83;;;9.50;99.90;;;;;;5035963;28;20458;-69
2022/02/04 12:31:30;;;;;;;3.93;2.80;;;9.50;99.90;;;;;;5037119;28;20445;-69
2022/02/04 12:34:03;;;;;;;7.00;2.70;;;9.80;99.90;;;;;;5035199;28;20530;-71
2022/02/04 12:36:40;;;;;;;2.80;2.00;;;10.50;99.90;;;;;;5035760;28;21469;-69
2022/02/04 12:39:17;;;;;;;2.67;1.90;;;10.60;99.90;;;;;;5037152;28;20842;-71
2022/02/04 12:41:44;;;;;;;3.60;2.37;;;10.60;99.90;;;;;;5039028;28;20485;-69
2022/02/04 12:44:31;;;;;;;5.53;3.30;;;10.60;99.90;;;;;;5039369;28;20449;-70
2022/02/04 12:47:00;;;;;;;2.77;1.90;;;10.70;99.90;;;;;;5022301;28;20593;-70
2022/02/04 12:49:28;;;;;;;6.70;4.00;;;11.70;99.90;;;;;;5037468;28;20541;-70
2022/02/04 12:52:21;;;;;;;4.37;2.23;;;11.50;99.90;;;;;;5036355;28;20435;-70
2022/02/04 12:54:52;;;;;;;3.53;1.63;;;11.00;99.90;;;;;;5037584;28;20928;-70
2022/02/04 12:57:31;;;;;;;3.37;1.83;;;10.60;99.90;;;;;;5037769;28;20450;-70
2022/02/04 13:10:32;;;;;;;2.70;1.17;;;9.90;99.90;;;;;;5035229;28;20469;-71
2022/02/04 13:13:00;;;;;;;1.30;1.10;;;9.80;99.90;;;;;;5034811;28;20431;-72
2022/02/04 13:15:28;;;;;;;1.30;1.10;;;9.70;99.90;;;;;;5035853;28;20191;-70
2022/02/04 13:17:55;;;;;;;1.50;1.10;;;9.70;99.90;;;;;;5031659;28;20852;-70
2022/02/04 13:20:22;;;;;;;1.30;1.10;;;9.60;99.90;;;;;;5038151;28;20450;-70
2022/02/04 13:22:56;;;;;;;1.57;1.30;;;9.60;99.90;;;;;;5043720;28;20538;-70
2022/02/04 13:25:24;;;;;;;1.87;1.20;;;9.60;99.90;;;;;;5041555;28;20441;-72
2022/02/04 13:28:03;;;;;;;1.40;1.10;;;9.60;99.90;;;;;;5042017;28;20530;-70
2022/02/04 13:30:36;;;;;;;2.03;1.50;;;9.40;99.90;;;;;;5041955;28;20443;-71
2022/02/04 13:33:02;;;;;;;1.60;1.30;;;9.50;99.90;;;;;;5032641;28;20438;-70
2022/02/04 13:35:38;;;;;;;1.33;1.17;;;9.40;99.90;;;;;;5036667;28;20431;-72
2022/02/04 13:41:34;;;;;;;1.43;1.20;;;9.40;99.90;;;;;;4978472;28;20474;-72
2022/02/04 13:44:25;;;;;;;4.57;2.50;;;9.40;99.90;;;;;;5031660;28;20495;-71
2022/02/04 13:54:40;;;;;;;2.00;1.40;;;9.30;99.90;;;;;;5035826;28;20956;-70
2022/02/04 13:57:45;;;;;;;2.37;1.40;;;9.40;99.90;;;;;;5037019;28;20472;-70
2022/02/04 14:00:44;;;;;;;1.77;1.13;;;9.30;99.90;;;;;;5037155;28;20445;-70
2022/02/04 14:03:18;;;;;;;1.90;1.20;;;9.30;99.90;;;;;;5037955;28;20509;-70
2022/02/04 14:06:09;;;;;;;1.30;1.10;;;9.30;99.90;;;;;;5037832;28;20438;-72
2022/02/04 14:08:47;;;;;;;1.50;1.30;;;9.30;99.90;;;;;;5042019;28;20481;-71
2022/02/04 14:11:14;;;;;;;1.57;1.10;;;9.30;99.90;;;;;;5039229;28;20437;-71
2022/02/04 14:13:40;;;;;;;1.60;1.40;;;9.20;99.90;;;;;;5037334;28;20520;-72
2022/02/04 14:16:08;;;;;;;1.53;1.40;;;9.30;99.90;;;;;;5040467;28;20831;-70
2022/02/04 14:18:35;;;;;;;4.70;2.53;;;9.30;99.90;;;;;;5042918;28;20458;-72
2022/02/04 14:21:02;;;;;;;3.73;1.93;;;9.30;99.90;;;;;;5040473;28;20427;-72
2022/02/04 14:23:28;;;;;;;2.27;1.63;;;9.40;99.90;;;;;;5031587;28;20521;-70
2022/02/04 14:26:02;;;;;;;2.30;1.60;;;9.40;99.90;;;;;;5038867;28;20457;-70
2022/02/04 14:28:40;;;;;;;2.47;1.90;;;9.40;99.90;;;;;;5038863;28;20495;-71
2022/02/04 14:36:13;;;;;;;1.67;1.50;;;9.50;99.90;;;;;;5037833;28;20442;-70
2022/02/04 14:52:41;;;;;;;2.90;1.87;;;9.40;99.90;;;;;;5040222;28;20435;-71
2022/02/04 15:00:42;;;;;;;1.80;1.50;;;9.40;99.90;;;;;;5038744;28;20448;-72
2022/02/04 15:05:41;;;;;;;1.83;1.40;;;9.40;99.90;;;;;;5036399;28;20449;-72
2022/02/04 15:08:11;;;;;;;2.13;1.67;;;9.40;99.90;;;;;;5035823;28;20257;-72
2022/02/04 15:10:38;;;;;;;2.43;1.73;;;9.30;99.90;;;;;;5030377;28;20831;-72
2022/02/04 15:13:10;;;;;;;2.33;1.67;;;9.40;99.90;;;;;;5035121;28;20982;-75
2022/02/04 15:15:37;;;;;;;2.00;1.67;;;9.30;99.90;;;;;;5038457;28;20465;-72
2022/02/04 15:18:03;;;;;;;2.43;1.77;;;9.40;99.90;;;;;;5037827;28;20553;-72
2022/02/04 15:20:29;;;;;;;2.00;1.70;;;9.40;99.90;;;;;;5034067;28;20484;-72
2022/02/04 15:22:55;;;;;;;2.27;1.80;;;9.40;99.90;;;;;;5038028;28;20439;-72
2022/02/04 15:25:22;;;;;;;4.07;1.60;;;9.30;99.90;;;;;;5037389;28;20446;-71
2022/02/04 15:28:03;;;;;;;2.50;1.63;;;9.40;99.90;;;;;;5039344;28;20466;-71
2022/02/04 15:30:34;;;;;;;1.93;1.50;;;9.40;99.90;;;;;;5037043;28;20434;-72
2022/02/04 15:32:59;;;;;;;1.80;1.50;;;9.40;99.90;;;;;;5038181;28;20537;-71
2022/02/04 15:35:26;;;;;;;1.47;1.20;;;9.40;99.90;;;;;;5035260;28;20517;-72
2022/02/04 15:37:51;;;;;;;1.53;1.43;;;9.40;99.90;;;;;;5038109;28;20896;-70
2022/02/04 15:40:17;;;;;;;3.37;1.90;;;9.40;99.90;;;;;;5038547;28;20431;-71
2022/02/04 15:42:49;;;;;;;1.90;1.50;;;9.40;99.90;;;;;;5036449;28;20241;-72
2022/02/04 15:50:59;;;;;;;2.70;2.13;;;9.40;99.90;;;;;;5034250;28;20462;-70
2022/02/04 15:58:56;;;;;;;2.63;1.60;;;9.40;99.90;;;;;;5036744;28;20507;-71
2022/02/04 16:04:28;;;;;;;1.77;1.50;;;9.30;99.90;;;;;;4943796;28;20440;-71
2022/02/04 16:06:54;;;;;;;9.07;2.40;;;9.40;99.90;;;;;;5035781;28;20988;-70
2022/02/04 16:09:21;;;;;;;2.03;1.47;;;9.40;99.90;;;;;;5039679;28;20453;-70
2022/02/04 16:16:44;;;;;;;2.20;1.57;;;9.30;99.90;;;;;;5034048;28;20474;-72
2022/02/04 16:19:25;;;;;;;1.70;1.60;;;9.30;99.90;;;;;;5036683;28;20184;-72
2022/02/04 16:28:38;;;;;;;1.90;1.40;;;9.30;99.90;;;;;;5036764;28;21168;-72
2022/02/04 16:29:57;;;;;;;1.60;1.40;;;9.40;99.90;;;;;;5038588;28;20847;-72
2022/02/04 16:32:23;;;;;;;1.60;1.37;;;9.30;99.90;;;;;;5037784;28;20931;-72
2022/02/04 16:34:54;;;;;;;1.93;1.70;;;9.30;99.90;;;;;;5037088;28;20460;-71
2022/02/04 16:37:30;;;;;;;1.53;1.43;;;9.30;99.90;;;;;;5035445;28;20211;-72
2022/02/04 16:39:57;;;;;;;2.20;1.60;;;9.30;99.90;;;;;;5037220;28;20545;-72
2022/02/04 16:42:23;;;;;;;2.33;1.60;;;9.30;99.90;;;;;;5037549;28;20522;-72
2022/02/04 16:44:49;;;;;;;1.70;1.60;;;9.30;99.90;;;;;;5037462;28;20936;-72
2022/02/04 16:47:15;;;;;;;2.07;1.90;;;9.20;99.90;;;;;;5033541;28;20703;-71
2022/02/04 16:49:40;;;;;;;2.03;1.50;;;9.20;99.90;;;;;;5034074;28;20451;-72
2022/02/04 16:52:06;;;;;;;1.97;1.60;;;9.20;99.90;;;;;;5037046;28;20488;-71
2022/02/04 16:54:37;;;;;;;2.57;1.90;;;9.10;99.90;;;;;;5034534;28;20181;-72
2022/02/04 16:57:03;;;;;;;2.10;1.70;;;9.10;99.90;;;;;;5036287;28;20198;-72
2022/02/04 16:59:29;;;;;;;2.10;1.47;;;9.10;99.90;;;;;;5036968;28;21757;-72
2022/02/04 17:01:57;;;;;;;1.70;1.57;;;9.10;99.90;;;;;;5017977;28;20439;-73
2022/02/04 17:04:23;;;;;;;3.40;2.20;;;9.10;99.90;;;;;;5035732;28;20191;-71
2022/02/04 17:06:56;;;;;;;3.40;2.33;;;9.00;99.90;;;;;;5012532;28;20450;-71
2022/02/04 17:09:27;;;;;;;4.70;2.70;;;8.90;99.90;;;;;;5032302;28;20186;-72
2022/02/04 17:12:01;;;;;;;4.53;3.13;;;8.90;99.90;;;;;;5036851;28;20433;-72
2022/02/04 17:14:28;;;;;;;4.07;2.13;;;8.90;99.90;;;;;;5034251;28;20431;-71
2022/02/04 17:16:55;;;;;;;2.97;2.20;;;8.80;99.90;;;;;;5035727;28;20443;-71
2022/02/04 17:19:24;;;;;;;1.87;1.60;;;8.90;99.90;;;;;;5036502;28;20495;-72
2022/02/04 17:21:51;;;;;;;5.50;1.87;;;8.80;99.90;;;;;;5031184;28;20481;-72
2022/02/04 17:24:18;;;;;;;2.80;1.90;;;8.90;99.90;;;;;;5036777;28;20435;-73
2022/02/04 17:26:44;;;;;;;2.73;2.20;;;8.80;99.90;;;;;;5038190;28;20465;-73
2022/02/04 17:29:11;;;;;;;2.13;1.70;;;8.80;99.90;;;;;;5037265;28;20454;-73
2022/02/04 17:31:37;;;;;;;1.70;1.60;;;8.80;99.90;;;;;;5031242;28;20178;-73
2022/02/04 17:34:05;;;;;;;1.73;1.30;;;8.80;99.90;;;;;;5035185;28;20521;-73
2022/02/04 17:36:35;;;;;;;2.37;1.53;;;8.80;99.90;;;;;;5029662;28;20454;-73
2022/02/04 17:39:09;;;;;;;1.60;1.37;;;8.80;99.90;;;;;;5035974;28;20521;-73
2022/02/04 17:41:37;;;;;;;2.20;1.97;;;8.70;99.90;;;;;;5014476;28;20447;-73
2022/02/04 17:44:03;;;;;;;2.60;1.80;;;8.80;99.90;;;;;;5035014;28;20826;-73
2022/02/04 17:46:28;;;;;;;3.23;2.03;;;8.80;99.90;;;;;;5031627;28;20450;-73
2022/02/04 17:49:03;;;;;;;1.87;1.47;;;8.80;99.90;;;;;;5034810;28;20211;-73
2022/02/04 17:51:54;;;;;;;2.00;1.70;;;8.70;99.90;;;;;;5031800;28;20194;-73
2022/02/04 17:54:30;;;;;;;2.10;1.57;;;8.80;99.90;;;;;;5033571;28;20415;-73
2022/02/04 18:02:31;;;;;;;2.10;1.90;;;8.80;99.90;;;;;;5010354;28;20429;-71
2022/02/04 18:05:25;;;;;;;2.53;2.10;;;8.80;99.90;;;;;;5034778;28;20899;-71
2022/02/04 18:07:50;;;;;;;4.13;2.40;;;8.80;99.90;;;;;;5035836;28;20497;-70
2022/02/04 18:10:16;;;;;;;2.67;2.47;;;8.90;99.90;;;;;;5035217;28;20442;-71
2022/02/04 18:12:42;;;;;;;2.57;2.23;;;8.90;99.90;;;;;;5040620;28;20433;-71
2022/02/04 18:15:08;;;;;;;3.63;3.00;;;8.90;99.90;;;;;;5035613;28;20835;-71
2022/02/04 18:17:33;;;;;;;4.50;2.70;;;8.90;99.90;;;;;;5031310;28;20928;-72
2022/02/04 18:19:59;;;;;;;4.10;2.50;;;8.90;99.90;;;;;;5036483;28;20801;-71
2022/02/04 18:22:25;;;;;;;3.77;2.27;;;8.90;99.90;;;;;;5035321;28;20192;-73
2022/02/04 18:24:51;;;;;;;5.50;2.73;;;9.00;99.90;;;;;;5039549;28;20434;-74
2022/02/04 18:27:17;;;;;;;3.23;2.20;;;9.00;99.90;;;;;;5040475;28;20468;-72
2022/02/04 18:29:46;;;;;;;2.20;1.70;;;9.00;99.90;;;;;;5034491;28;20180;-71
2022/02/04 18:32:13;;;;;;;1.80;1.50;;;9.00;99.90;;;;;;5036798;28;20230;-71
2022/02/04 18:34:39;;;;;;;6.83;2.43;;;9.00;99.90;;;;;;5038189;28;20522;-71
2022/02/04 18:37:05;;;;;;;2.30;1.80;;;9.00;99.90;;;;;;5041914;28;20533;-71
2022/02/04 18:45:00;;;;;;;2.67;2.33;;;9.00;99.90;;;;;;4966145;28;20195;-73
2022/02/04 18:47:36;;;;;;;2.00;1.70;;;9.00;99.90;;;;;;5023011;28;20488;-72
2022/02/04 18:50:09;;;;;;;2.43;1.90;;;9.00;99.90;;;;;;5038107;28;20599;-72
2022/02/04 18:57:49;;;;;;;3.43;2.30;;;9.00;99.90;;;;;;5002063;28;20938;-72
2022/02/04 19:00:17;;;;;;;3.00;2.03;;;9.00;99.90;;;;;;5037117;28;20438;-70
2022/02/04 19:02:47;;;;;;;2.10;1.77;;;9.00;99.90;;;;;;5036900;28;20191;-70
2022/02/04 19:05:23;;;;;;;1.93;1.67;;;9.00;99.90;;;;;;5037813;28;20533;-70
2022/02/04 19:08:14;;;;;;;2.27;1.70;;;9.00;99.90;;;;;;5037839;28;20473;-70
2022/02/04 19:10:37;;;;;;;2.57;1.60;;;9.00;99.90;;;;;;5040472;28;20927;-71
2022/02/04 19:13:12;;;;;;;2.17;1.80;;;9.00;99.90;;;;;;5041374;28;20450;-70
2022/02/04 19:18:16;;;;;;;1.90;1.50;;;9.00;99.90;;;;;;5037648;28;20478;-70
2022/02/04 19:21:00;;;;;;;1.60;1.10;;;8.90;99.90;;;;;;5038081;28;20554;-70
2022/02/04 19:23:27;;;;;;;2.03;1.67;;;9.00;99.90;;;;;;5039131;28;20441;-70
2022/02/04 19:25:57;;;;;;;4.43;1.40;;;9.00;99.90;;;;;;5036213;28;20442;-73
2022/02/04 19:28:25;;;;;;;1.90;1.50;;;9.00;99.90;;;;;;5039104;28;20473;-71
2022/02/04 19:30:53;;;;;;;1.30;1.20;;;9.00;99.90;;;;;;5034903;28;20445;-69
2022/02/04 19:33:21;;;;;;;1.93;1.33;;;9.00;99.90;;;;;;5036693;28;20426;-70
2022/02/04 19:35:48;;;;;;;2.03;1.60;;;9.00;99.90;;;;;;5040524;28;20442;-70
2022/02/04 19:38:14;;;;;;;2.43;1.60;;;9.00;99.90;;;;;;5020725;28;20465;-70
2022/02/04 19:40:43;;;;;;;1.83;1.40;;;9.00;99.90;;;;;;5037016;28;20445;-70
2022/02/04 19:43:11;;;;;;;1.87;1.50;;;9.00;99.90;;;;;;5038017;28;20531;-70
2022/02/04 19:45:46;;;;;;;1.60;1.40;;;9.00;99.90;;;;;;5021743;28;20439;-70
2022/02/04 19:48:22;;;;;;;2.87;1.63;;;9.00;99.90;;;;;;5037968;28;20469;-71
2022/02/04 19:51:06;;;;;;;1.50;1.40;;;9.10;99.90;;;;;;5039336;28;20515;-71
2022/02/04 20:23:37;;;;;;;1.87;1.50;;;9.10;99.90;;;;;;5036326;28;20446;-71
2022/02/04 20:26:05;;;;;;;2.03;1.57;;;9.00;99.90;;;;;;5040134;28;20474;-71